Date,TemperatureHighF,TemperatureAvgF,TemperatureLowF,DewpointHighF,DewpointAvgF,DewpointLowF,HumidityHigh,HumidityAvg,HumidityLow,PressureMaxIn,PressureMinIn,WindSpeedMaxMPH,WindSpeedAvgMPH,GustSpeedMaxMPH,PrecipitationSumIn
2013-1-1,71,38,32,25,21,19,66,50,18,30.30,30.17,5,1,10,0.02
2013-1-2,51,38,28,22,21,19,73,52,31,30.22,30.09,8,3,13,0.02
2013-1-3,48,38,30,29,22,16,80,55,38,30.30,30.12,10,3,17,0.00
2013-1-4,48,33,27,27,25,23,86,73,42,30.38,30.28,5,1,9,0.02
2013-1-5,55,39,28,29,21,11,88,55,18,30.42,30.32,7,2,10,0.02
2013-1-6,56,42,32,25,19,15,58,41,21,30.34,30.06,10,4,16,0.00
2013-1-7,54,42,33,26,23,17,66,50,24,30.06,29.89,15,4,22,0.00
2013-1-8,53,43,33,27,24,20,67,47,29,30.20,29.98,11,5,16,0.00
2013-1-9,60,47,35,22,18,13,55,33,17,30.36,30.19,8,2,13,0.00
2013-1-10,61,49,35,24,19,13,51,32,18,30.19,29.93,14,4,26,0.00
2013-1-11,52,35,27,32,19,9,93,52,28,30.13,29.96,23,8,32,0.00
2013-1-12,37,28,19,12,8,5,65,44,27,30.14,30.01,14,2,23,0.00
2013-1-13,39,27,17,10,6,-2,62,42,20,30.15,30.01,10,2,15,0.00
2013-1-14,35,27,21,8,4,1,50,37,25,30.21,30.06,13,5,18,0.00
2013-1-15,37,26,15,3,0,-3,53,33,19,30.39,30.21,8,2,14,0.00
2013-1-16,51,36,23,6,2,-2,33,24,15,30.44,30.31,10,3,14,0.00
2013-1-17,58,43,31,15,10,5,36,27,17,30.42,30.30,10,4,14,0.00
2013-1-18,63,47,35,18,16,13,48,30,14,30.39,30.25,9,4,14,0.00
2013-1-19,67,53,40,29,18,14,39,26,15,30.38,30.26,7,2,10,0.00
2013-1-20,68,54,43,31,24,17,44,31,23,30.32,30.17,7,2,10,0.00
2013-1-21,69,56,45,30,26,23,43,33,22,30.28,30.17,5,2,9,0.00
2013-1-22,70,57,45,35,27,22,64,33,19,30.36,30.26,7,2,11,0.00
2013-1-23,72,58,46,30,26,23,40,30,20,30.41,30.29,7,3,11,0.00
2013-1-24,64,55,51,44,36,28,69,50,34,30.38,30.32,6,0,9,0.00
2013-1-25,68,58,48,48,41,40,76,55,38,30.37,30.18,8,2,14,0.00
2013-1-26,64,56,51,54,48,43,95,74,56,30.18,30.07,15,6,28,0.07
2013-1-27,60,52,46,49,45,40,96,78,53,30.17,30.07,8,1,12,0.10
2013-1-28,54,46,34,42,37,31,93,74,45,30.08,30.01,19,8,30,0.05
2013-1-29,42,35,30,31,24,16,96,67,35,30.25,30.05,25,11,37,0.07
2013-1-30,50,39,30,23,19,10,71,47,21,30.41,30.25,7,2,12,0.01
2013-1-31,56,47,35,25,23,18,52,38,28,30.33,30.24,7,3,10,0.00
2013-2-1,65,49,36,26,23,18,59,39,16,30.35,30.26,8,4,13,0.00
2013-2-2,68,54,42,24,21,17,45,30,14,30.41,30.28,6,3,9,0.00
2013-2-3,63,55,49,35,26,21,50,34,21,30.31,30.11,12,4,16,0.00
2013-2-4,64,54,44,37,34,30,66,48,34,30.19,30.08,8,3,13,0.00
2013-2-5,66,54,42,39,36,32,80,55,28,30.18,30.05,12,3,20,0.00
2013-2-6,63,51,41,39,35,31,82,57,32,30.17,30.05,14,3,20,0.00
2013-2-7,62,50,40,37,31,26,77,51,26,30.25,30.11,6,3,12,0.00
2013-2-8,65,54,40,30,19,8,58,29,11,30.11,29.91,14,6,24,0.00
2013-2-9,43,38,31,31,26,21,95,62,43,30.11,29.88,19,10,28,0.00
2013-2-10,49,38,26,25,21,16,82,54,27,30.11,30.00,10,3,21,0.00
2013-2-11,47,36,30,33,23,14,96,63,37,30.19,30.03,19,6,27,0.02
2013-2-12,44,34,24,30,27,23,97,77,50,30.32,30.19,7,2,11,0.03
2013-2-13,55,40,25,25,20,12,83,50,19,30.27,30.16,7,2,10,0.03
2013-2-14,58,44,30,26,22,17,70,44,21,30.24,30.14,11,2,17,0.00
2013-2-15,62,49,39,26,17,0,58,32,8,30.39,30.24,14,4,18,0.00
2013-2-16,66,53,40,17,12,7,32,20,10,30.42,30.19,9,3,16,0.00
2013-2-17,66,51,36,17,11,2,36,21,8,30.19,29.97,20,6,31,0.00
2013-2-18,63,51,39,16,14,11,35,23,14,30.20,30.07,8,2,16,0.00
2013-2-19,65,52,41,35,20,11,57,29,17,30.08,29.84,16,4,28,0.00
2013-2-20,49,37,28,32,27,13,97,70,23,29.99,29.74,22,6,38,0.00
2013-2-21,44,35,23,34,29,22,97,80,49,30.11,29.98,7,2,11,0.08
2013-2-22,47,39,31,34,31,26,93,72,48,30.24,30.06,11,4,21,0.08
2013-2-23,59,43,30,30,25,18,82,53,21,30.23,29.95,14,3,19,0.00
2013-2-24,44,40,33,27,16,3,60,39,21,30.15,29.88,27,11,41,0.00
2013-2-25,51,40,28,17,14,8,55,35,21,30.26,30.13,11,4,16,0.00
2013-2-26,55,42,27,21,15,9,65,36,16,30.19,30.04,17,6,26,0.00
2013-2-27,56,44,31,16,9,3,50,25,12,30.30,30.19,9,3,12,0.00
2013-2-28,59,46,33,13,6,-5,35,22,7,30.42,30.28,11,3,22,0.00
2013-3-1,67,52,34,17,12,7,36,21,11,30.45,30.34,7,2,10,0.00
2013-3-2,76,60,44,25,19,12,43,22,9,30.47,30.29,9,4,14,0.00
2013-3-3,72,59,43,25,19,7,42,24,8,30.30,30.10,15,4,21,0.00
2013-3-4,66,59,46,29,22,12,48,25,14,30.23,30.04,21,9,31,0.00
2013-3-5,71,57,42,29,26,22,55,33,16,30.28,30.15,14,5,21,0.00
2013-3-6,75,62,51,29,26,20,39,27,16,30.21,30.06,12,4,20,0.00
2013-3-7,72,60,47,29,23,13,44,26,11,30.13,30.05,13,5,25,0.00
2013-3-8,63,54,42,41,34,23,85,48,28,30.08,29.91,23,10,33,0.01
2013-3-9,45,40,35,37,32,26,87,71,54,30.18,30.04,15,7,24,0.01
2013-3-10,57,46,38,35,30,23,86,57,28,30.27,30.16,9,4,18,0.00
2013-3-11,67,53,39,30,24,15,61,37,14,30.30,30.15,12,4,18,0.00
2013-3-12,74,59,41,32,24,15,62,31,11,30.27,30.17,8,2,12,0.00
2013-3-13,79,65,48,27,19,14,34,19,9,30.35,30.23,8,3,15,0.00
2013-3-14,83,68,52,22,14,7,27,15,6,30.36,30.22,7,3,10,0.00
2013-3-15,85,70,52,24,14,-5,22,13,3,30.27,30.11,15,5,27,0.00
2013-3-16,80,72,60,21,12,2,18,10,5,30.11,29.95,20,8,28,0.00
2013-3-17,75,64,49,23,18,10,25,17,12,30.11,29.98,20,7,34,0.00
2013-3-18,73,62,48,31,23,13,46,24,10,30.18,30.08,12,4,21,0.00
2013-3-19,71,60,50,31,25,21,42,27,18,30.24,30.11,15,4,24,0.00
2013-3-20,75,62,47,28,26,23,43,26,15,30.24,30.06,13,5,21,0.00
2013-3-21,72,63,53,31,28,18,37,27,14,30.06,29.92,17,6,27,0.00
2013-3-22,73,64,56,30,24,15,36,23,12,29.99,29.85,21,8,32,0.00
2013-3-23,66,58,49,30,20,7,41,24,12,30.14,29.98,18,9,30,0.00
2013-3-24,67,56,42,10,4,-1,22,13,7,30.16,30.01,15,5,23,0.00
2013-3-25,72,59,42,15,10,4,24,15,10,30.18,30.07,8,3,13,0.00
2013-3-26,79,61,47,16,13,7,27,17,7,30.18,30.03,10,5,17,0.00
2013-3-27,79,66,51,25,18,13,26,17,9,30.19,30.09,12,5,22,0.00
2013-3-28,76,66,52,32,24,16,42,22,11,30.25,30.15,14,5,26,0.00
2013-3-29,77,66,53,28,23,12,36,20,12,30.29,30.18,12,4,20,0.00
2013-3-30,76,66,53,27,18,-100,28,17,10,30.26,30.12,13,4,19,0.00
2013-3-31,76,64,51,28,24,20,37,23,14,30.23,30.10,13,4,22,0.00
2013-4-1,75,65,52,33,28,20,42,26,17,30.19,30.05,15,5,27,0.00
2013-4-2,69,60,49,22,19,9,32,21,10,30.25,30.03,18,7,30,0.00
2013-4-3,73,63,47,26,23,19,36,22,15,30.35,30.24,11,5,18,0.00
2013-4-4,83,67,50,28,20,5,40,19,5,30.40,30.24,11,4,18,0.00
2013-4-5,81,69,57,29,22,17,27,17,11,30.30,30.16,14,6,28,0.00
2013-4-6,77,69,58,33,28,23,38,23,14,30.29,30.14,15,6,26,0.00
2013-4-7,78,66,53,34,28,20,45,26,12,30.21,30.07,17,5,24,0.00
2013-4-8,76,66,55,36,31,24,46,29,16,30.07,29.67,29,11,45,0.03
2013-4-9,57,49,41,40,29,20,93,50,24,30.14,29.84,20,10,40,0.05
2013-4-10,60,51,40,28,24,20,51,35,24,30.26,30.14,13,6,31,0.00
2013-4-11,72,57,39,28,24,18,57,31,13,30.26,30.06,14,4,23,0.00
2013-4-12,73,66,51,24,21,18,31,19,13,30.14,30.03,12,4,21,0.00
2013-4-13,76,65,49,29,22,18,35,21,12,30.16,30.04,13,6,25,0.00
2013-4-14,78,66,52,33,28,23,43,26,14,30.12,30.00,15,5,32,0.00
2013-4-15,80,67,52,36,29,22,40,26,12,30.10,30.03,15,6,25,0.00
2013-4-16,79,68,59,40,28,14,46,25,9,30.13,30.03,18,8,27,0.00
2013-4-17,61,55,47,43,26,9,61,36,17,30.27,30.05,22,10,37,0.00
2013-4-18,63,52,39,15,9,-2,28,18,7,30.40,30.24,10,4,17,0.00
2013-4-19,72,61,44,7,-1,-8,19,9,4,30.44,30.24,11,4,15,0.00
2013-4-20,76,64,47,16,7,0,17,11,6,30.29,30.19,15,5,22,0.00
2013-4-21,81,68,51,16,12,3,22,12,5,30.36,30.25,13,4,23,0.00
2013-4-22,84,72,57,18,12,4,19,11,5,30.30,30.13,16,6,23,0.00
2013-4-23,81,70,55,23,15,10,20,13,7,30.22,30.12,20,6,28,0.00
2013-4-24,84,71,56,24,18,10,25,14,7,30.27,30.15,12,5,24,0.00
2013-4-25,79,69,55,28,20,12,28,17,8,30.34,30.17,19,7,35,0.00
2013-4-26,79,65,48,29,16,-4,42,19,4,30.42,30.31,12,4,19,0.00
2013-4-27,82,70,53,26,18,6,31,16,6,30.39,30.22,10,3,18,0.00
2013-4-28,86,73,58,22,14,2,22,12,4,30.27,30.10,7,3,17,0.00
2013-4-29,88,75,60,17,9,2,15,9,4,30.19,30.03,11,4,23,0.00
2013-4-30,89,76,62,23,16,10,18,11,6,30.16,30.06,15,7,24,0.00
2013-5-1,82,71,57,23,18,9,25,14,7,30.32,30.14,14,6,26,0.00
2013-5-2,80,70,58,23,18,5,23,14,8,30.45,30.32,14,6,20,0.00
2013-5-3,78,63,47,22,16,10,34,18,8,30.44,30.16,14,6,22,0.00
2013-5-4,85,72,55,30,19,12,22,14,7,30.17,30.05,13,5,23,0.00
2013-5-5,83,72,63,35,26,17,33,19,9,30.25,30.12,15,7,30,0.00
2013-5-6,78,67,55,42,36,30,53,34,19,30.28,30.19,13,5,22,0.00
2013-5-7,77,65,52,39,31,21,47,30,13,30.29,30.16,13,4,27,0.00
2013-5-8,74,62,49,39,33,24,58,36,16,30.32,30.21,15,5,24,0.00
2013-5-9,75,66,54,40,32,24,53,31,15,30.29,30.19,12,5,21,0.00
2013-5-10,76,64,56,37,31,-100,44,30,17,30.39,30.26,17,4,27,0.00
2013-5-11,76,66,54,37,33,-100,48,32,19,30.44,30.35,19,5,23,0.00
2013-5-12,80,69,56,37,31,24,45,27,13,30.49,30.31,19,7,26,0.00
2013-5-13,84,73,57,33,25,13,31,18,7,30.44,30.29,13,4,21,0.00
2013-5-14,88,74,57,35,30,19,33,21,11,30.35,30.20,13,4,21,0.00
2013-5-15,87,77,64,34,31,28,29,19,12,30.35,30.21,19,7,28,0.00
2013-5-16,90,73,62,29,11,-100,27,16,7,30.30,30.14,13,4,23,0.00
2013-5-17,88,75,60,32,20,-100,31,16,3,30.25,30.15,16,5,25,0.00
2013-5-18,82,73,63,34,26,11,30,19,7,30.27,30.16,16,7,29,0.00
2013-5-19,82,71,54,38,30,24,42,24,12,30.26,30.12,17,5,26,0.00
2013-5-20,83,73,61,37,28,19,37,20,10,30.24,30.13,17,7,30,0.00
2013-5-21,87,74,57,23,16,7,23,12,5,30.27,30.13,14,4,20,0.00
2013-5-22,92,79,60,25,18,11,22,11,5,30.19,30.05,13,5,21,0.00
2013-5-23,92,78,59,36,20,4,26,13,4,30.21,30.12,13,5,21,0.00
2013-5-24,91,77,59,42,23,4,40,18,4,30.29,30.18,13,5,25,0.00
2013-5-25,90,78,61,32,20,4,30,13,4,30.31,30.21,16,6,24,0.00
2013-5-26,90,76,57,26,14,-1,24,11,3,30.31,30.21,15,4,27,0.00
2013-5-27,88,76,61,26,13,-6,19,10,3,30.27,30.08,15,6,24,0.00
2013-5-28,88,75,59,30,20,5,25,14,5,30.14,29.97,15,5,27,0.00
2013-5-29,85,74,57,34,29,21,31,20,10,30.11,30.03,15,5,23,0.00
2013-5-30,88,81,70,51,37,29,51,22,13,30.21,30.12,15,6,28,0.00
2013-5-31,90,79,64,54,43,31,67,32,13,30.26,30.14,13,6,22,0.00
2013-6-1,96,84,66,39,31,22,31,17,7,30.23,30.09,9,4,15,0.00
2013-6-2,100,86,72,41,33,17,30,16,5,30.20,30.07,14,6,26,0.00
2013-6-3,96,83,68,38,27,9,30,15,4,30.24,30.13,14,5,25,0.00
2013-6-4,95,82,66,40,33,25,33,18,9,30.26,30.16,14,7,25,0.00
2013-6-5,91,81,65,35,24,11,28,14,5,30.27,30.14,13,6,23,0.00
2013-6-6,97,83,68,27,23,11,19,11,5,30.22,30.10,9,4,17,0.00
2013-6-7,99,85,72,36,25,18,20,12,6,30.20,30.05,10,3,20,0.00
2013-6-8,95,86,76,29,24,17,16,11,6,30.22,30.13,17,10,29,0.00
2013-6-9,95,85,72,39,27,13,28,14,6,30.28,30.18,15,9,28,0.00
2013-6-10,97,87,71,34,26,9,20,12,4,30.29,30.17,15,6,22,0.00
2013-6-11,99,87,73,30,23,15,17,10,5,30.29,30.17,13,6,23,0.00
2013-6-12,99,88,71,33,28,26,21,12,8,30.33,30.18,13,6,24,0.00
2013-6-13,95,86,76,45,40,34,31,21,14,30.31,30.16,15,9,27,0.00
2013-6-14,94,83,73,54,49,43,49,32,18,30.27,30.14,13,6,31,0.00
2013-6-15,79,75,72,50,48,47,43,40,34,30.21,30.20,4,2,7,0.00
2013-9-14,87,79,76,61,51,-100,59,42,35,30.13,30.06,6,2,12,0.00
2013-10-4,77,69,58,49,40,29,65,37,24,30.31,30.15,11,6,21,0.00
2013-10-5,75,63,52,29,19,-100,26,19,15,30.43,30.31,7,2,12,0.00
2013-10-6,79,65,50,23,21,16,29,19,11,30.46,30.35,8,3,13,0.00
2013-10-7,83,69,53,31,26,21,28,20,14,30.40,30.25,9,4,15,0.00
2013-10-8,82,73,58,38,30,25,34,22,16,30.27,30.14,12,4,19,0.00
2013-10-9,81,71,58,47,37,29,47,30,16,30.16,30.06,17,9,28,0.00
2013-10-10,67,60,50,47,42,36,69,51,33,30.23,30.06,17,7,34,0.00
2013-10-11,70,57,44,41,38,34,82,54,27,30.28,30.19,7,2,10,0.00
2013-10-12,80,68,49,40,28,-100,57,26,14,30.28,30.16,10,4,17,0.00
2013-10-13,82,69,55,45,40,31,56,36,16,30.31,30.21,14,5,29,0.00
2013-10-14,75,64,57,48,42,33,68,46,28,30.34,30.23,11,4,19,0.00
2013-10-15,75,64,50,42,34,28,53,34,23,30.27,30.15,13,4,22,0.00
2013-10-16,71,65,56,28,19,12,30,18,10,30.36,30.27,12,4,17,0.00
2013-10-17,73,66,56,22,16,9,25,15,9,30.35,30.20,10,5,19,0.00
2013-10-18,74,65,49,26,23,20,31,21,14,30.31,30.23,6,3,10,0.00
2013-10-19,77,67,60,20,13,-100,18,13,9,30.37,30.24,7,4,12,0.00
2013-10-20,75,67,47,21,16,8,23,14,8,30.29,30.17,12,4,17,0.00
2013-10-21,76,68,53,20,16,12,25,14,9,30.32,30.24,10,4,18,0.00
2013-10-22,78,71,59,29,20,12,28,16,8,30.40,30.26,10,4,16,0.00
2013-10-23,81,72,61,33,30,26,30,22,16,30.32,30.20,8,3,12,0.00
2013-10-24,83,71,54,37,29,24,35,22,14,30.32,30.20,10,4,19,0.00
2013-10-25,78,71,63,29,27,23,25,19,15,30.39,30.30,10,5,16,0.00
2013-10-26,78,68,59,30,22,-100,30,19,12,30.44,30.33,5,2,9,0.00
2013-10-27,81,69,54,34,28,22,39,23,13,30.35,30.12,10,5,15,0.00
2013-10-28,73,65,59,32,26,-100,32,25,13,30.24,30.14,15,6,30,0.00
2013-10-29,76,64,53,38,30,22,55,30,15,30.26,30.13,16,5,28,0.00
2013-10-30,61,54,47,43,36,27,70,51,39,30.30,30.18,13,6,23,0.00
2013-10-31,67,52,38,31,22,8,61,35,11,30.39,30.27,10,3,16,0.00
2013-11-1,71,61,40,24,21,17,41,22,14,30.44,30.32,5,2,8,0.00
2013-11-2,76,63,47,27,15,-100,31,18,11,30.38,30.20,13,4,22,0.00
2013-11-3,71,61,53,50,45,39,85,57,37,30.24,30.07,12,3,21,0.03
2013-11-4,74,62,50,45,41,37,68,48,26,30.15,30.01,13,4,22,0.00
2013-11-5,62,55,48,45,39,34,73,56,37,30.40,30.12,12,4,18,0.00
2013-11-6,67,55,45,40,23,14,75,32,13,30.53,30.41,8,2,12,0.00
2013-11-18,71,60,50,47,40,38,68,49,30,30.40,30.26,8,2,13,0.00
2013-11-19,71,58,45,41,36,28,74,47,20,30.32,30.14,9,1,17,0.00
2013-11-20,71,61,51,40,34,22,55,39,16,30.19,30.08,15,4,25,0.00
2013-11-21,69,60,48,46,40,34,60,49,36,30.24,30.15,12,3,20,0.00
2013-11-22,64,57,49,52,47,40,93,70,51,30.20,30.11,20,7,30,0.21
2013-11-23,48,43,40,42,38,-100,95,88,73,30.32,30.19,10,5,16,0.19
2013-11-24,47,41,38,38,36,34,92,84,70,30.37,30.30,7,2,11,0.10
2013-11-25,53,45,39,37,34,32,79,66,50,30.46,30.35,6,2,11,0.00
2013-11-26,57,46,36,33,29,21,82,55,31,30.55,30.42,10,5,16,0.00
2013-11-30,67,55,45,40,35,-100,74,49,29,30.45,30.35,5,1,9,0.00
2013-12-1,68,57,50,41,38,28,67,50,22,30.47,30.38,8,1,11,0.00
2013-12-2,67,54,40,40,30,16,80,45,14,30.41,30.19,11,2,18,0.00
2013-12-3,70,56,43,43,29,14,57,38,13,30.19,30.02,8,2,15,0.00
2013-12-4,63,55,47,44,37,22,75,53,21,30.13,30.02,20,6,32,0.00
2013-12-5,49,39,34,40,35,28,93,85,65,30.26,30.08,10,6,23,0.12
2013-12-6,46,36,25,28,25,21,86,66,42,30.36,30.25,5,1,15,0.01
2013-12-7,54,41,28,29,20,-100,76,49,21,30.27,30.16,10,2,20,0.00
2013-12-8,49,44,36,36,31,21,83,63,50,30.31,30.22,11,4,20,0.00
2013-12-9,46,39,32,36,23,12,87,54,25,30.49,30.26,9,2,15,0.00
2013-12-10,53,40,30,16,14,10,48,34,22,30.48,30.33,6,3,12,0.00
2013-12-11,63,50,37,38,26,15,47,38,33,30.47,30.37,8,3,13,0.00
2013-12-12,63,49,41,47,32,22,86,53,40,30.47,30.30,9,4,15,0.15
2013-12-13,54,46,37,34,31,28,71,55,39,30.39,30.30,10,4,17,0.12
2013-12-14,56,45,34,31,23,-100,78,48,23,30.53,30.38,7,2,15,0.00
2013-12-15,60,49,38,24,22,19,52,35,23,30.55,30.43,6,2,9,0.00
2013-12-16,68,53,40,23,22,19,50,30,16,30.53,30.43,6,3,10,0.00
2013-12-17,72,61,50,25,23,21,34,24,16,30.54,30.40,6,3,10,0.00
2013-12-18,68,60,48,25,22,20,37,24,16,30.37,30.15,8,3,12,0.00
2013-12-19,63,54,45,26,22,17,41,30,17,30.14,29.97,14,3,26,0.00
2013-12-20,48,42,38,39,32,20,93,71,33,30.02,29.87,11,4,17,0.22
2013-12-21,45,40,38,39,32,-100,92,78,59,30.23,30.01,15,9,27,0.08
2013-12-22,49,43,36,37,33,27,94,70,46,30.49,30.23,12,1,17,0.01
2013-12-23,55,43,33,31,28,23,84,56,32,30.59,30.49,7,2,11,0.00
2013-12-24,59,45,34,27,25,22,63,46,29,30.52,30.36,7,2,15,0.00
2013-12-25,58,50,39,27,26,24,60,40,29,30.52,30.40,7,3,12,0.00
2013-12-26,54,43,32,27,24,21,71,47,27,30.52,30.39,9,3,14,0.00
2013-12-27,57,46,34,24,21,17,60,39,21,30.50,30.38,8,3,12,0.00